sensor_id;sensor_type;location;lat;lon;timestamp;temperature;humidity
254;DHT22;590;48.772;8.846;2022-07-09T00:01:01;13.40;60.00
254;DHT22;590;48.772;8.846;2022-07-09T00:03:30;13.40;59.70
254;DHT22;590;48.772;8.846;2022-07-09T00:05:58;13.30;59.20
254;DHT22;590;48.772;8.846;2022-07-09T00:08:29;13.30;58.70
254;DHT22;590;48.772;8.846;2022-07-09T00:10:58;13.30;59.40
254;DHT22;590;48.772;8.846;2022-07-09T00:13:26;13.30;59.60
254;DHT22;590;48.772;8.846;2022-07-09T00:15:54;13.20;60.00
254;DHT22;590;48.772;8.846;2022-07-09T00:18:22;13.20;60.00
254;DHT22;590;48.772;8.846;2022-07-09T00:20:53;13.20;59.60
254;DHT22;590;48.772;8.846;2022-07-09T00:23:22;13.20;60.00
254;DHT22;590;48.772;8.846;2022-07-09T00:25:50;13.20;60.90
254;DHT22;590;48.772;8.846;2022-07-09T00:28:19;13.20;60.70
254;DHT22;590;48.772;8.846;2022-07-09T00:30:47;13.20;60.70
254;DHT22;590;48.772;8.846;2022-07-09T00:33:15;13.20;60.30
254;DHT22;590;48.772;8.846;2022-07-09T00:35:43;13.10;60.40
254;DHT22;590;48.772;8.846;2022-07-09T00:38:12;13.10;60.60
254;DHT22;590;48.772;8.846;2022-07-09T00:40:40;13.10;60.60
254;DHT22;590;48.772;8.846;2022-07-09T00:43:16;13.10;60.00
254;DHT22;590;48.772;8.846;2022-07-09T00:45:44;13.10;59.60
254;DHT22;590;48.772;8.846;2022-07-09T00:48:12;13.10;59.50
254;DHT22;590;48.772;8.846;2022-07-09T00:50:42;13.00;59.90
254;DHT22;590;48.772;8.846;2022-07-09T00:53:15;13.00;60.50
254;DHT22;590;48.772;8.846;2022-07-09T00:55:44;12.90;60.50
254;DHT22;590;48.772;8.846;2022-07-09T00:58:16;12.90;60.70
254;DHT22;590;48.772;8.846;2022-07-09T01:00:45;12.80;61.20
254;DHT22;590;48.772;8.846;2022-07-09T01:03:13;12.80;61.60
254;DHT22;590;48.772;8.846;2022-07-09T01:05:41;12.80;61.90
254;DHT22;590;48.772;8.846;2022-07-09T01:08:09;12.70;62.20
254;DHT22;590;48.772;8.846;2022-07-09T01:10:39;12.70;63.10
254;DHT22;590;48.772;8.846;2022-07-09T01:13:07;12.80;62.80
254;DHT22;590;48.772;8.846;2022-07-09T01:15:35;12.80;62.50
254;DHT22;590;48.772;8.846;2022-07-09T01:18:03;12.80;62.80
254;DHT22;590;48.772;8.846;2022-07-09T01:20:33;12.80;62.20
254;DHT22;590;48.772;8.846;2022-07-09T01:23:01;12.70;62.20
254;DHT22;590;48.772;8.846;2022-07-09T01:25:34;12.60;62.50
254;DHT22;590;48.772;8.846;2022-07-09T01:28:03;12.50;62.80
254;DHT22;590;48.772;8.846;2022-07-09T01:30:34;12.40;62.80
254;DHT22;590;48.772;8.846;2022-07-09T01:33:02;12.40;63.50
254;DHT22;590;48.772;8.846;2022-07-09T01:35:32;12.40;63.40
254;DHT22;590;48.772;8.846;2022-07-09T01:38:00;12.30;63.60
254;DHT22;590;48.772;8.846;2022-07-09T01:40:28;12.30;64.20
254;DHT22;590;48.772;8.846;2022-07-09T01:42:56;12.20;65.00
254;DHT22;590;48.772;8.846;2022-07-09T01:45:24;12.20;65.00
254;DHT22;590;48.772;8.846;2022-07-09T01:47:52;12.20;64.90
254;DHT22;590;48.772;8.846;2022-07-09T01:50:20;12.20;65.80
254;DHT22;590;48.772;8.846;2022-07-09T01:52:50;12.20;66.80
254;DHT22;590;48.772;8.846;2022-07-09T01:55:18;12.10;66.50
254;DHT22;590;48.772;8.846;2022-07-09T01:57:46;12.10;66.40
254;DHT22;590;48.772;8.846;2022-07-09T02:00:14;12.20;66.80
254;DHT22;590;48.772;8.846;2022-07-09T02:02:45;12.20;66.50
254;DHT22;590;48.772;8.846;2022-07-09T02:05:13;12.20;66.50
254;DHT22;590;48.772;8.846;2022-07-09T02:07:41;12.30;66.10
254;DHT22;590;48.772;8.846;2022-07-09T02:10:10;12.30;66.00
254;DHT22;590;48.772;8.846;2022-07-09T02:12:39;12.30;65.70
254;DHT22;590;48.772;8.846;2022-07-09T02:15:07;12.20;65.50
254;DHT22;590;48.772;8.846;2022-07-09T02:17:37;12.10;65.70
254;DHT22;590;48.772;8.846;2022-07-09T02:20:06;12.10;66.00
254;DHT22;590;48.772;8.846;2022-07-09T02:22:35;12.10;66.50
254;DHT22;590;48.772;8.846;2022-07-09T02:25:04;12.10;66.40
254;DHT22;590;48.772;8.846;2022-07-09T02:27:34;12.00;66.90
254;DHT22;590;48.772;8.846;2022-07-09T02:30:02;12.10;67.00
254;DHT22;590;48.772;8.846;2022-07-09T02:32:31;12.00;66.90
254;DHT22;590;48.772;8.846;2022-07-09T02:34:59;12.10;66.90
254;DHT22;590;48.772;8.846;2022-07-09T02:37:27;12.10;66.40
254;DHT22;590;48.772;8.846;2022-07-09T02:39:55;12.10;66.00
254;DHT22;590;48.772;8.846;2022-07-09T02:42:23;12.00;65.90
254;DHT22;590;48.772;8.846;2022-07-09T02:44:52;12.00;66.00
254;DHT22;590;48.772;8.846;2022-07-09T02:47:20;12.00;66.00
254;DHT22;590;48.772;8.846;2022-07-09T02:49:48;11.90;66.30
254;DHT22;590;48.772;8.846;2022-07-09T02:52:16;11.90;66.50
254;DHT22;590;48.772;8.846;2022-07-09T02:54:44;11.80;65.90
254;DHT22;590;48.772;8.846;2022-07-09T02:57:12;11.80;66.60
254;DHT22;590;48.772;8.846;2022-07-09T02:59:40;11.80;66.80
254;DHT22;590;48.772;8.846;2022-07-09T03:02:09;11.80;66.70
254;DHT22;590;48.772;8.846;2022-07-09T03:04:37;11.80;66.60
254;DHT22;590;48.772;8.846;2022-07-09T03:07:05;11.70;66.70
254;DHT22;590;48.772;8.846;2022-07-09T03:09:33;11.70;67.40
254;DHT22;590;48.772;8.846;2022-07-09T03:12:01;11.70;67.40
254;DHT22;590;48.772;8.846;2022-07-09T03:14:29;11.60;67.10
254;DHT22;590;48.772;8.846;2022-07-09T03:16:57;11.60;67.40
254;DHT22;590;48.772;8.846;2022-07-09T03:19:27;11.60;67.40
254;DHT22;590;48.772;8.846;2022-07-09T03:21:55;11.70;67.40
254;DHT22;590;48.772;8.846;2022-07-09T03:24:23;11.70;66.90
254;DHT22;590;48.772;8.846;2022-07-09T03:26:51;11.70;66.90
254;DHT22;590;48.772;8.846;2022-07-09T03:29:19;11.70;66.90
254;DHT22;590;48.772;8.846;2022-07-09T03:31:47;11.70;66.50
254;DHT22;590;48.772;8.846;2022-07-09T03:34:15;11.70;66.40
254;DHT22;590;48.772;8.846;2022-07-09T03:36:44;11.80;66.30
254;DHT22;590;48.772;8.846;2022-07-09T03:39:12;11.90;66.70
254;DHT22;590;48.772;8.846;2022-07-09T03:41:40;11.90;65.90
254;DHT22;590;48.772;8.846;2022-07-09T03:44:08;11.90;65.50
254;DHT22;590;48.772;8.846;2022-07-09T03:46:36;11.80;65.70
254;DHT22;590;48.772;8.846;2022-07-09T03:49:04;11.70;65.30
254;DHT22;590;48.772;8.846;2022-07-09T03:51:32;11.60;66.50
254;DHT22;590;48.772;8.846;2022-07-09T03:54:02;11.60;66.60
254;DHT22;590;48.772;8.846;2022-07-09T03:56:30;11.70;66.70
254;DHT22;590;48.772;8.846;2022-07-09T03:58:58;11.70;66.50
254;DHT22;590;48.772;8.846;2022-07-09T04:01:26;11.70;66.40
254;DHT22;590;48.772;8.846;2022-07-09T04:03:54;11.70;66.30
254;DHT22;590;48.772;8.846;2022-07-09T04:06:22;11.80;66.60
254;DHT22;590;48.772;8.846;2022-07-09T04:08:50;11.90;66.60
254;DHT22;590;48.772;8.846;2022-07-09T04:11:20;12.00;65.90
254;DHT22;590;48.772;8.846;2022-07-09T04:13:48;12.10;65.60
254;DHT22;590;48.772;8.846;2022-07-09T04:16:16;12.20;65.00
254;DHT22;590;48.772;8.846;2022-07-09T04:18:44;12.40;64.80
254;DHT22;590;48.772;8.846;2022-07-09T04:21:12;12.50;64.00
254;DHT22;590;48.772;8.846;2022-07-09T04:23:40;12.60;63.80
254;DHT22;590;48.772;8.846;2022-07-09T04:26:09;12.60;62.10
254;DHT22;590;48.772;8.846;2022-07-09T04:28:38;12.60;62.60
254;DHT22;590;48.772;8.846;2022-07-09T04:31:07;12.70;62.20
254;DHT22;590;48.772;8.846;2022-07-09T04:33:35;12.70;61.60
254;DHT22;590;48.772;8.846;2022-07-09T04:36:03;12.80;61.80
254;DHT22;590;48.772;8.846;2022-07-09T04:38:31;12.80;61.20
254;DHT22;590;48.772;8.846;2022-07-09T04:41:00;12.90;61.90
254;DHT22;590;48.772;8.846;2022-07-09T04:43:28;13.10;62.50
254;DHT22;590;48.772;8.846;2022-07-09T04:45:58;13.30;62.10
254;DHT22;590;48.772;8.846;2022-07-09T04:48:26;13.60;60.50
254;DHT22;590;48.772;8.846;2022-07-09T04:50:54;13.90;58.20
254;DHT22;590;48.772;8.846;2022-07-09T04:53:23;14.20;55.10
254;DHT22;590;48.772;8.846;2022-07-09T04:55:51;15.00;54.50
254;DHT22;590;48.772;8.846;2022-07-09T04:58:19;16.50;48.30
254;DHT22;590;48.772;8.846;2022-07-09T05:00:47;18.20;35.80
254;DHT22;590;48.772;8.846;2022-07-09T05:03:16;19.70;24.80
254;DHT22;590;48.772;8.846;2022-07-09T05:05:44;21.10;18.60
254;DHT22;590;48.772;8.846;2022-07-09T05:08:16;22.60;14.10
254;DHT22;590;48.772;8.846;2022-07-09T05:10:45;23.70;9.70
254;DHT22;590;48.772;8.846;2022-07-09T05:13:13;24.30;7.50
254;DHT22;590;48.772;8.846;2022-07-09T05:15:41;24.60;7.10
254;DHT22;590;48.772;8.846;2022-07-09T05:18:09;24.60;6.90
254;DHT22;590;48.772;8.846;2022-07-09T05:20:38;24.90;6.10
254;DHT22;590;48.772;8.846;2022-07-09T05:23:09;25.00;6.50
254;DHT22;590;48.772;8.846;2022-07-09T05:25:37;25.40;6.20
254;DHT22;590;48.772;8.846;2022-07-09T05:28:05;25.80;5.40
254;DHT22;590;48.772;8.846;2022-07-09T05:30:33;26.00;5.40
254;DHT22;590;48.772;8.846;2022-07-09T05:33:04;25.80;4.70
254;DHT22;590;48.772;8.846;2022-07-09T05:35:32;25.50;4.50
254;DHT22;590;48.772;8.846;2022-07-09T05:38:01;24.90;5.30
254;DHT22;590;48.772;8.846;2022-07-09T05:40:29;24.40;4.80
254;DHT22;590;48.772;8.846;2022-07-09T05:42:57;23.80;5.90
254;DHT22;590;48.772;8.846;2022-07-09T05:45:25;23.40;7.70
254;DHT22;590;48.772;8.846;2022-07-09T05:47:53;23.20;9.20
254;DHT22;590;48.772;8.846;2022-07-09T05:50:22;23.10;8.90
254;DHT22;590;48.772;8.846;2022-07-09T05:52:50;23.00;8.90
254;DHT22;590;48.772;8.846;2022-07-09T05:55:19;22.80;9.70
254;DHT22;590;48.772;8.846;2022-07-09T05:57:47;22.60;9.20
254;DHT22;590;48.772;8.846;2022-07-09T06:00:15;22.60;10.80
254;DHT22;590;48.772;8.846;2022-07-09T06:02:43;22.70;9.50
254;DHT22;590;48.772;8.846;2022-07-09T06:05:11;22.90;9.70
254;DHT22;590;48.772;8.846;2022-07-09T06:07:39;23.00;9.30
254;DHT22;590;48.772;8.846;2022-07-09T06:10:12;22.90;9.20
254;DHT22;590;48.772;8.846;2022-07-09T06:12:42;23.00;8.50
254;DHT22;590;48.772;8.846;2022-07-09T06:15:11;23.20;9.20
254;DHT22;590;48.772;8.846;2022-07-09T06:17:39;23.30;8.30
254;DHT22;590;48.772;8.846;2022-07-09T06:20:07;23.40;9.30
254;DHT22;590;48.772;8.846;2022-07-09T06:22:36;23.40;8.10
254;DHT22;590;48.772;8.846;2022-07-09T06:25:06;23.40;8.80
254;DHT22;590;48.772;8.846;2022-07-09T06:27:34;23.50;8.50
254;DHT22;590;48.772;8.846;2022-07-09T06:30:04;23.50;8.30
254;DHT22;590;48.772;8.846;2022-07-09T06:32:33;23.50;8.50
254;DHT22;590;48.772;8.846;2022-07-09T06:35:01;23.60;8.00
254;DHT22;590;48.772;8.846;2022-07-09T06:37:29;24.00;8.90
254;DHT22;590;48.772;8.846;2022-07-09T06:39:57;24.50;7.70
254;DHT22;590;48.772;8.846;2022-07-09T06:42:26;25.10;6.80
254;DHT22;590;48.772;8.846;2022-07-09T06:45:00;25.60;6.70
254;DHT22;590;48.772;8.846;2022-07-09T06:47:30;26.10;5.50
254;DHT22;590;48.772;8.846;2022-07-09T06:49:58;26.50;6.50
254;DHT22;590;48.772;8.846;2022-07-09T06:52:26;26.70;5.30
254;DHT22;590;48.772;8.846;2022-07-09T06:54:54;27.00;5.40
254;DHT22;590;48.772;8.846;2022-07-09T06:57:22;27.40;4.30
254;DHT22;590;48.772;8.846;2022-07-09T06:59:50;27.70;5.10
254;DHT22;590;48.772;8.846;2022-07-09T07:02:18;28.00;4.20
254;DHT22;590;48.772;8.846;2022-07-09T07:04:48;28.30;2.70
254;DHT22;590;48.772;8.846;2022-07-09T07:07:16;28.20;3.20
254;DHT22;590;48.772;8.846;2022-07-09T07:09:44;27.80;3.40
254;DHT22;590;48.772;8.846;2022-07-09T07:12:12;27.20;3.40
254;DHT22;590;48.772;8.846;2022-07-09T07:14:40;26.60;4.80
254;DHT22;590;48.772;8.846;2022-07-09T07:17:08;26.20;4.90
254;DHT22;590;48.772;8.846;2022-07-09T07:19:36;26.20;5.30
254;DHT22;590;48.772;8.846;2022-07-09T07:22:07;26.20;5.50
254;DHT22;590;48.772;8.846;2022-07-09T07:24:35;26.70;5.20
254;DHT22;590;48.772;8.846;2022-07-09T07:27:04;27.40;4.00
254;DHT22;590;48.772;8.846;2022-07-09T07:29:32;28.20;2.80
254;DHT22;590;48.772;8.846;2022-07-09T07:32:00;28.90;1.70
254;DHT22;590;48.772;8.846;2022-07-09T07:34:28;29.60;1.00
254;DHT22;590;48.772;8.846;2022-07-09T07:36:56;30.40;1.00
254;DHT22;590;48.772;8.846;2022-07-09T07:39:25;31.00;1.00
254;DHT22;590;48.772;8.846;2022-07-09T07:41:53;31.20;1.00
254;DHT22;590;48.772;8.846;2022-07-09T07:44:21;31.30;1.00
254;DHT22;590;48.772;8.846;2022-07-09T07:46:50;31.40;1.00
254;DHT22;590;48.772;8.846;2022-07-09T07:49:18;31.40;1.00
254;DHT22;590;48.772;8.846;2022-07-09T07:51:46;31.90;1.00
254;DHT22;590;48.772;8.846;2022-07-09T07:54:14;32.10;1.00
254;DHT22;590;48.772;8.846;2022-07-09T07:56:44;32.30;1.00
254;DHT22;590;48.772;8.846;2022-07-09T07:59:12;32.60;1.00
254;DHT22;590;48.772;8.846;2022-07-09T08:01:40;32.70;1.00
254;DHT22;590;48.772;8.846;2022-07-09T08:04:08;32.70;1.00
254;DHT22;590;48.772;8.846;2022-07-09T08:06:36;32.80;1.00
254;DHT22;590;48.772;8.846;2022-07-09T08:09:04;32.80;1.00
254;DHT22;590;48.772;8.846;2022-07-09T08:11:32;32.60;1.00
254;DHT22;590;48.772;8.846;2022-07-09T08:14:02;32.70;1.00
254;DHT22;590;48.772;8.846;2022-07-09T08:16:30;32.90;1.00
254;DHT22;590;48.772;8.846;2022-07-09T08:18:58;33.20;1.00
254;DHT22;590;48.772;8.846;2022-07-09T08:21:26;33.40;1.00
254;DHT22;590;48.772;8.846;2022-07-09T08:23:54;33.50;1.00
254;DHT22;590;48.772;8.846;2022-07-09T08:26:24;33.40;1.00
254;DHT22;590;48.772;8.846;2022-07-09T08:28:52;33.40;1.00
254;DHT22;590;48.772;8.846;2022-07-09T08:31:23;33.60;1.00
254;DHT22;590;48.772;8.846;2022-07-09T08:33:51;33.90;1.00
254;DHT22;590;48.772;8.846;2022-07-09T08:36:19;33.70;1.00
254;DHT22;590;48.772;8.846;2022-07-09T08:38:47;33.50;1.00
254;DHT22;590;48.772;8.846;2022-07-09T08:41:19;33.30;1.00
254;DHT22;590;48.772;8.846;2022-07-09T08:43:53;33.20;1.00
254;DHT22;590;48.772;8.846;2022-07-09T08:46:23;33.00;1.00
254;DHT22;590;48.772;8.846;2022-07-09T08:48:52;32.90;1.00
254;DHT22;590;48.772;8.846;2022-07-09T08:51:22;33.00;1.00
254;DHT22;590;48.772;8.846;2022-07-09T08:53:53;33.40;1.00
254;DHT22;590;48.772;8.846;2022-07-09T08:56:22;33.70;1.00
254;DHT22;590;48.772;8.846;2022-07-09T08:58:50;34.00;1.00
254;DHT22;590;48.772;8.846;2022-07-09T09:01:18;34.20;1.00
254;DHT22;590;48.772;8.846;2022-07-09T09:03:47;34.20;1.00
254;DHT22;590;48.772;8.846;2022-07-09T09:06:16;33.90;1.00
254;DHT22;590;48.772;8.846;2022-07-09T09:08:48;33.80;1.00
254;DHT22;590;48.772;8.846;2022-07-09T09:11:21;33.60;1.00
254;DHT22;590;48.772;8.846;2022-07-09T09:13:51;33.50;1.00
254;DHT22;590;48.772;8.846;2022-07-09T09:16:20;33.50;1.00
254;DHT22;590;48.772;8.846;2022-07-09T09:18:52;33.40;1.00
254;DHT22;590;48.772;8.846;2022-07-09T09:21:22;33.20;1.00
254;DHT22;590;48.772;8.846;2022-07-09T09:23:51;33.10;1.00
254;DHT22;590;48.772;8.846;2022-07-09T09:26:21;33.00;1.00
254;DHT22;590;48.772;8.846;2022-07-09T09:28:51;33.00;1.00
254;DHT22;590;48.772;8.846;2022-07-09T09:31:21;33.20;1.00
254;DHT22;590;48.772;8.846;2022-07-09T09:33:52;33.40;1.00
254;DHT22;590;48.772;8.846;2022-07-09T09:36:31;33.80;1.00
254;DHT22;590;48.772;8.846;2022-07-09T09:39:11;34.00;1.00
254;DHT22;590;48.772;8.846;2022-07-09T09:41:42;33.80;1.00
254;DHT22;590;48.772;8.846;2022-07-09T09:44:12;33.80;1.00
254;DHT22;590;48.772;8.846;2022-07-09T09:46:41;33.80;1.00
254;DHT22;590;48.772;8.846;2022-07-09T09:49:12;33.80;1.00
254;DHT22;590;48.772;8.846;2022-07-09T09:51:50;33.80;1.00
254;DHT22;590;48.772;8.846;2022-07-09T09:54:21;33.50;1.00
254;DHT22;590;48.772;8.846;2022-07-09T09:56:50;32.70;1.00
254;DHT22;590;48.772;8.846;2022-07-09T09:59:18;31.70;1.00
254;DHT22;590;48.772;8.846;2022-07-09T10:01:46;31.20;1.00
254;DHT22;590;48.772;8.846;2022-07-09T10:04:16;30.60;1.00
254;DHT22;590;48.772;8.846;2022-07-09T10:06:45;30.00;1.00
254;DHT22;590;48.772;8.846;2022-07-09T10:09:14;29.40;1.00
254;DHT22;590;48.772;8.846;2022-07-09T10:11:44;29.40;1.00
254;DHT22;590;48.772;8.846;2022-07-09T10:14:17;29.80;1.00
254;DHT22;590;48.772;8.846;2022-07-09T10:16:45;30.20;1.00
254;DHT22;590;48.772;8.846;2022-07-09T10:19:23;30.30;1.00
254;DHT22;590;48.772;8.846;2022-07-09T10:21:53;30.20;1.00
254;DHT22;590;48.772;8.846;2022-07-09T10:24:24;29.90;1.00
254;DHT22;590;48.772;8.846;2022-07-09T10:27:02;29.50;1.00
254;DHT22;590;48.772;8.846;2022-07-09T10:29:31;29.20;1.00
254;DHT22;590;48.772;8.846;2022-07-09T10:31:59;29.20;1.00
254;DHT22;590;48.772;8.846;2022-07-09T10:34:42;29.20;1.00
254;DHT22;590;48.772;8.846;2022-07-09T10:37:12;29.30;1.00
254;DHT22;590;48.772;8.846;2022-07-09T10:39:40;29.10;1.00
254;DHT22;590;48.772;8.846;2022-07-09T10:42:17;28.90;1.00
254;DHT22;590;48.772;8.846;2022-07-09T10:44:46;28.80;1.00
254;DHT22;590;48.772;8.846;2022-07-09T10:47:16;29.00;1.00
254;DHT22;590;48.772;8.846;2022-07-09T10:49:46;29.50;1.00
254;DHT22;590;48.772;8.846;2022-07-09T10:52:14;30.00;1.00
254;DHT22;590;48.772;8.846;2022-07-09T10:54:46;30.10;1.00
254;DHT22;590;48.772;8.846;2022-07-09T10:57:14;30.00;1.00
254;DHT22;590;48.772;8.846;2022-07-09T10:59:46;30.00;1.00
254;DHT22;590;48.772;8.846;2022-07-09T11:02:18;30.20;1.00
254;DHT22;590;48.772;8.846;2022-07-09T11:04:50;30.60;1.00
254;DHT22;590;48.772;8.846;2022-07-09T11:07:19;30.90;1.00
254;DHT22;590;48.772;8.846;2022-07-09T11:09:48;31.10;1.00
254;DHT22;590;48.772;8.846;2022-07-09T11:12:17;30.70;1.00
254;DHT22;590;48.772;8.846;2022-07-09T11:14:46;29.90;1.00
254;DHT22;590;48.772;8.846;2022-07-09T11:17:14;29.10;1.00
254;DHT22;590;48.772;8.846;2022-07-09T11:19:43;28.50;1.00
254;DHT22;590;48.772;8.846;2022-07-09T11:22:13;28.00;1.00
254;DHT22;590;48.772;8.846;2022-07-09T11:24:42;27.70;1.10
254;DHT22;590;48.772;8.846;2022-07-09T11:27:10;27.60;2.70
254;DHT22;590;48.772;8.846;2022-07-09T11:29:38;27.80;2.50
254;DHT22;590;48.772;8.846;2022-07-09T11:32:06;28.20;1.30
254;DHT22;590;48.772;8.846;2022-07-09T11:34:34;28.20;1.00
254;DHT22;590;48.772;8.846;2022-07-09T11:37:02;28.30;2.50
254;DHT22;590;48.772;8.846;2022-07-09T11:39:37;28.50;1.20
254;DHT22;590;48.772;8.846;2022-07-09T11:42:05;28.60;1.00
254;DHT22;590;48.772;8.846;2022-07-09T11:44:33;28.60;1.00
254;DHT22;590;48.772;8.846;2022-07-09T11:47:03;28.70;2.00
254;DHT22;590;48.772;8.846;2022-07-09T11:49:33;28.90;2.30
254;DHT22;590;48.772;8.846;2022-07-09T11:52:01;29.10;1.00
254;DHT22;590;48.772;8.846;2022-07-09T11:54:29;29.00;1.00
254;DHT22;590;48.772;8.846;2022-07-09T11:56:59;28.90;1.00
254;DHT22;590;48.772;8.846;2022-07-09T11:59:28;28.90;1.00
254;DHT22;590;48.772;8.846;2022-07-09T12:01:59;28.80;1.00
254;DHT22;590;48.772;8.846;2022-07-09T12:04:29;28.50;1.00
254;DHT22;590;48.772;8.846;2022-07-09T12:06:58;28.20;1.00
254;DHT22;590;48.772;8.846;2022-07-09T12:09:28;28.00;1.20
254;DHT22;590;48.772;8.846;2022-07-09T12:11:59;28.20;1.30
254;DHT22;590;48.772;8.846;2022-07-09T12:14:27;28.40;1.30
254;DHT22;590;48.772;8.846;2022-07-09T12:16:56;28.70;1.60
254;DHT22;590;48.772;8.846;2022-07-09T12:19:25;29.00;1.00
254;DHT22;590;48.772;8.846;2022-07-09T12:21:53;29.30;1.00
254;DHT22;590;48.772;8.846;2022-07-09T12:24:25;29.50;1.00
254;DHT22;590;48.772;8.846;2022-07-09T12:26:53;29.50;1.00
254;DHT22;590;48.772;8.846;2022-07-09T12:29:42;29.30;1.00
254;DHT22;590;48.772;8.846;2022-07-09T12:32:11;29.30;1.00
254;DHT22;590;48.772;8.846;2022-07-09T12:34:39;29.20;1.00
254;DHT22;590;48.772;8.846;2022-07-09T12:37:07;28.90;1.00
254;DHT22;590;48.772;8.846;2022-07-09T12:39:35;28.60;1.00
254;DHT22;590;48.772;8.846;2022-07-09T12:42:04;28.20;1.00
254;DHT22;590;48.772;8.846;2022-07-09T12:44:32;27.90;1.00
254;DHT22;590;48.772;8.846;2022-07-09T12:47:02;27.70;1.30
254;DHT22;590;48.772;8.846;2022-07-09T12:49:30;27.70;2.50
254;DHT22;590;48.772;8.846;2022-07-09T12:51:58;27.80;2.80
254;DHT22;590;48.772;8.846;2022-07-09T12:54:26;28.10;2.30
254;DHT22;590;48.772;8.846;2022-07-09T12:56:54;28.30;1.00
254;DHT22;590;48.772;8.846;2022-07-09T12:59:38;28.10;1.00
254;DHT22;590;48.772;8.846;2022-07-09T13:02:07;28.10;1.90
254;DHT22;590;48.772;8.846;2022-07-09T13:04:35;28.10;1.20
254;DHT22;590;48.772;8.846;2022-07-09T13:07:03;28.10;1.50
254;DHT22;590;48.772;8.846;2022-07-09T13:09:31;28.00;1.00
254;DHT22;590;48.772;8.846;2022-07-09T13:12:01;27.80;1.10
254;DHT22;590;48.772;8.846;2022-07-09T13:14:29;27.70;2.10
254;DHT22;590;48.772;8.846;2022-07-09T13:16:57;27.70;1.00
254;DHT22;590;48.772;8.846;2022-07-09T13:19:46;27.60;1.00
254;DHT22;590;48.772;8.846;2022-07-09T13:22:15;27.60;1.00
254;DHT22;590;48.772;8.846;2022-07-09T13:24:43;27.50;1.10
254;DHT22;590;48.772;8.846;2022-07-09T13:27:11;27.40;1.00
254;DHT22;590;48.772;8.846;2022-07-09T13:29:39;27.30;1.40
254;DHT22;590;48.772;8.846;2022-07-09T13:32:07;27.30;1.40
254;DHT22;590;48.772;8.846;2022-07-09T13:34:35;27.40;1.60
254;DHT22;590;48.772;8.846;2022-07-09T13:37:05;27.60;1.50
254;DHT22;590;48.772;8.846;2022-07-09T13:39:33;27.70;1.00
254;DHT22;590;48.772;8.846;2022-07-09T13:42:01;27.90;1.10
254;DHT22;590;48.772;8.846;2022-07-09T13:44:29;28.10;2.30
254;DHT22;590;48.772;8.846;2022-07-09T13:46:57;28.40;1.30
254;DHT22;590;48.772;8.846;2022-07-09T13:49:25;28.70;1.20
254;DHT22;590;48.772;8.846;2022-07-09T13:51:53;28.80;1.00
254;DHT22;590;48.772;8.846;2022-07-09T13:54:23;28.70;1.30
254;DHT22;590;48.772;8.846;2022-07-09T13:56:51;28.70;1.20
254;DHT22;590;48.772;8.846;2022-07-09T13:59:19;28.70;1.00
254;DHT22;590;48.772;8.846;2022-07-09T14:01:47;28.70;1.00
254;DHT22;590;48.772;8.846;2022-07-09T14:04:15;28.90;1.40
254;DHT22;590;48.772;8.846;2022-07-09T14:06:43;29.10;1.00
254;DHT22;590;48.772;8.846;2022-07-09T14:09:14;29.30;1.20
254;DHT22;590;48.772;8.846;2022-07-09T14:11:45;29.30;1.00
254;DHT22;590;48.772;8.846;2022-07-09T14:14:13;29.10;1.00
254;DHT22;590;48.772;8.846;2022-07-09T14:16:41;28.90;1.00
254;DHT22;590;48.772;8.846;2022-07-09T14:19:09;28.80;1.00
254;DHT22;590;48.772;8.846;2022-07-09T14:21:38;28.70;1.30
254;DHT22;590;48.772;8.846;2022-07-09T14:24:12;28.80;1.20
254;DHT22;590;48.772;8.846;2022-07-09T14:26:40;28.90;1.30
254;DHT22;590;48.772;8.846;2022-07-09T14:29:12;28.90;1.00
254;DHT22;590;48.772;8.846;2022-07-09T14:31:48;28.90;1.30
254;DHT22;590;48.772;8.846;2022-07-09T14:34:17;28.90;1.90
254;DHT22;590;48.772;8.846;2022-07-09T14:36:45;29.00;1.00
254;DHT22;590;48.772;8.846;2022-07-09T14:39:13;28.90;1.00
254;DHT22;590;48.772;8.846;2022-07-09T14:41:41;28.70;1.00
254;DHT22;590;48.772;8.846;2022-07-09T14:44:11;28.70;2.20
254;DHT22;590;48.772;8.846;2022-07-09T14:46:40;28.80;2.30
254;DHT22;590;48.772;8.846;2022-07-09T14:49:09;28.90;2.20
254;DHT22;590;48.772;8.846;2022-07-09T14:51:37;29.10;1.00
254;DHT22;590;48.772;8.846;2022-07-09T14:54:06;29.20;1.40
254;DHT22;590;48.772;8.846;2022-07-09T14:56:34;29.30;1.40
254;DHT22;590;48.772;8.846;2022-07-09T14:59:02;29.20;1.00
254;DHT22;590;48.772;8.846;2022-07-09T15:01:32;29.10;1.00
254;DHT22;590;48.772;8.846;2022-07-09T15:04:00;28.90;1.40
254;DHT22;590;48.772;8.846;2022-07-09T15:06:28;28.90;2.10
254;DHT22;590;48.772;8.846;2022-07-09T15:08:56;29.00;2.10
254;DHT22;590;48.772;8.846;2022-07-09T15:11:24;29.00;1.20
254;DHT22;590;48.772;8.846;2022-07-09T15:13:53;29.00;1.00
254;DHT22;590;48.772;8.846;2022-07-09T15:16:21;29.00;1.20
254;DHT22;590;48.772;8.846;2022-07-09T15:18:50;29.00;1.50
254;DHT22;590;48.772;8.846;2022-07-09T15:21:18;29.00;1.70
254;DHT22;590;48.772;8.846;2022-07-09T15:23:46;28.90;1.20
254;DHT22;590;48.772;8.846;2022-07-09T15:26:14;28.70;2.10
254;DHT22;590;48.772;8.846;2022-07-09T15:28:42;28.40;1.70
254;DHT22;590;48.772;8.846;2022-07-09T15:31:10;28.10;2.70
254;DHT22;590;48.772;8.846;2022-07-09T15:33:39;28.00;2.60
254;DHT22;590;48.772;8.846;2022-07-09T15:36:08;27.80;2.80
254;DHT22;590;48.772;8.846;2022-07-09T15:38:36;27.70;3.30
254;DHT22;590;48.772;8.846;2022-07-09T15:41:05;27.70;3.40
254;DHT22;590;48.772;8.846;2022-07-09T15:43:37;27.70;3.50
254;DHT22;590;48.772;8.846;2022-07-09T15:46:06;27.70;3.30
254;DHT22;590;48.772;8.846;2022-07-09T15:48:35;27.70;3.00
254;DHT22;590;48.772;8.846;2022-07-09T15:51:07;27.80;3.30
254;DHT22;590;48.772;8.846;2022-07-09T15:53:35;27.70;3.10
254;DHT22;590;48.772;8.846;2022-07-09T15:56:04;27.60;3.60
254;DHT22;590;48.772;8.846;2022-07-09T15:58:32;27.40;3.60
254;DHT22;590;48.772;8.846;2022-07-09T16:01:00;27.40;3.80
254;DHT22;590;48.772;8.846;2022-07-09T16:03:29;27.30;4.20
254;DHT22;590;48.772;8.846;2022-07-09T16:05:57;27.10;4.00
254;DHT22;590;48.772;8.846;2022-07-09T16:08:33;27.00;4.10
254;DHT22;590;48.772;8.846;2022-07-09T16:11:01;26.80;5.00
254;DHT22;590;48.772;8.846;2022-07-09T16:13:43;26.70;4.60
254;DHT22;590;48.772;8.846;2022-07-09T16:16:13;26.60;5.60
254;DHT22;590;48.772;8.846;2022-07-09T16:18:41;26.60;6.20
254;DHT22;590;48.772;8.846;2022-07-09T16:21:09;26.70;5.50
254;DHT22;590;48.772;8.846;2022-07-09T16:23:38;26.80;6.40
254;DHT22;590;48.772;8.846;2022-07-09T16:26:06;26.80;5.10
254;DHT22;590;48.772;8.846;2022-07-09T16:28:34;26.80;5.40
254;DHT22;590;48.772;8.846;2022-07-09T16:31:03;26.60;5.70
254;DHT22;590;48.772;8.846;2022-07-09T16:33:31;26.60;6.00
254;DHT22;590;48.772;8.846;2022-07-09T16:35:59;26.50;6.10
254;DHT22;590;48.772;8.846;2022-07-09T16:38:30;26.50;6.40
254;DHT22;590;48.772;8.846;2022-07-09T16:41:00;26.50;6.20
254;DHT22;590;48.772;8.846;2022-07-09T16:43:28;26.50;6.60
254;DHT22;590;48.772;8.846;2022-07-09T16:45:57;26.50;6.30
254;DHT22;590;48.772;8.846;2022-07-09T16:48:36;26.50;6.80
254;DHT22;590;48.772;8.846;2022-07-09T16:51:05;26.40;5.70
254;DHT22;590;48.772;8.846;2022-07-09T16:53:33;26.40;6.60
254;DHT22;590;48.772;8.846;2022-07-09T16:56:03;26.40;6.80
254;DHT22;590;48.772;8.846;2022-07-09T16:58:32;26.30;6.80